sensor_id;sensor_type;location;lat;lon;timestamp;P1;durP1;ratioP1;P2;durP2;ratioP2
73421;SDS011;61637;47.760;-122.022;2023-06-14T00:00:02;10.3;;;2.4;;
73421;SDS011;61637;47.760;-122.022;2023-06-14T00:02:01;10.2;;;2.7;;
73421;SDS011;61637;47.760;-122.022;2023-06-14T00:04:01;9.5;;;3.0;;
73421;SDS011;61637;47.760;-122.022;2023-06-14T00:06:01;10.2;;;2.8;;
73421;SDS011;61637;47.760;-122.022;2023-06-14T00:08:01;12.4;;;2.7;;
73421;SDS011;61637;47.760;-122.022;2023-06-14T00:10:02;11.0;;;2.7;;
73421;SDS011;61637;47.760;-122.022;2023-06-14T00:12:01;11.1;;;2.7;;
73421;SDS011;61637;47.760;-122.022;2023-06-14T00:14:01;11.5;;;2.8;;
73421;SDS011;61637;47.760;-122.022;2023-06-14T00:16:01;8.6;;;2.4;;
73421;SDS011;61637;47.760;-122.022;2023-06-14T00:18:02;9.5;;;2.5;;
73421;SDS011;61637;47.760;-122.022;2023-06-14T00:20:02;9.7;;;2.9;;
73421;SDS011;61637;47.760;-122.022;2023-06-14T00:22:01;13.8;;;2.6;;
73421;SDS011;61637;47.760;-122.022;2023-06-14T00:24:01;11.4;;;2.8;;
73421;SDS011;61637;47.760;-122.022;2023-06-14T00:26:01;10.4;;;2.8;;
73421;SDS011;61637;47.760;-122.022;2023-06-14T00:28:01;8.6;;;2.8;;
73421;SDS011;61637;47.760;-122.022;2023-06-14T00:30:01;11.0;;;2.9;;
73421;SDS011;61637;47.760;-122.022;2023-06-14T00:32:01;9.7;;;2.6;;
73421;SDS011;61637;47.760;-122.022;2023-06-14T00:34:01;12.4;;;2.8;;
73421;SDS011;61637;47.760;-122.022;2023-06-14T00:36:01;8.8;;;2.5;;
73421;SDS011;61637;47.760;-122.022;2023-06-14T00:38:01;12.9;;;2.6;;
73421;SDS011;61637;47.760;-122.022;2023-06-14T00:40:02;11.9;;;2.6;;
73421;SDS011;61637;47.760;-122.022;2023-06-14T00:42:01;11.1;;;2.6;;
73421;SDS011;61637;47.760;-122.022;2023-06-14T00:44:01;8.4;;;2.4;;
73421;SDS011;61637;47.760;-122.022;2023-06-14T00:46:01;8.7;;;2.5;;
73421;SDS011;61637;47.760;-122.022;2023-06-14T00:48:02;11.2;;;2.6;;
73421;SDS011;61637;47.760;-122.022;2023-06-14T00:50:02;9.9;;;2.6;;
73421;SDS011;61637;47.760;-122.022;2023-06-14T00:52:01;10.7;;;2.6;;
73421;SDS011;61637;47.760;-122.022;2023-06-14T00:54:01;9.8;;;2.7;;
73421;SDS011;61637;47.760;-122.022;2023-06-14T00:56:01;8.8;;;2.4;;
73421;SDS011;61637;47.760;-122.022;2023-06-14T00:58:01;10.1;;;2.6;;
73421;SDS011;61637;47.760;-122.022;2023-06-14T01:00:01;10.2;;;2.5;;
73421;SDS011;61637;47.760;-122.022;2023-06-14T01:02:01;7.9;;;2.3;;
73421;SDS011;61637;47.760;-122.022;2023-06-14T01:04:01;8.2;;;2.3;;
73421;SDS011;61637;47.760;-122.022;2023-06-14T01:06:09;8.9;;;2.4;;
73421;SDS011;61637;47.760;-122.022;2023-06-14T01:08:14;10.8;;;2.8;;
73421;SDS011;61637;47.760;-122.022;2023-06-14T01:10:15;8.5;;;2.6;;
73421;SDS011;61637;47.760;-122.022;2023-06-14T01:12:07;9.2;;;2.6;;
73421;SDS011;61637;47.760;-122.022;2023-06-14T01:14:02;9.7;;;2.8;;
73421;SDS011;61637;47.760;-122.022;2023-06-14T01:16:02;8.8;;;2.5;;
73421;SDS011;61637;47.760;-122.022;2023-06-14T01:18:02;11.0;;;2.6;;
73421;SDS011;61637;47.760;-122.022;2023-06-14T01:20:02;10.0;;;2.4;;
73421;SDS011;61637;47.760;-122.022;2023-06-14T01:22:01;7.4;;;2.3;;
73421;SDS011;61637;47.760;-122.022;2023-06-14T01:24:01;8.0;;;2.3;;
73421;SDS011;61637;47.760;-122.022;2023-06-14T01:26:01;12.0;;;2.6;;
73421;SDS011;61637;47.760;-122.022;2023-06-14T01:28:03;9.1;;;2.3;;
73421;SDS011;61637;47.760;-122.022;2023-06-14T01:30:01;9.9;;;2.4;;
73421;SDS011;61637;47.760;-122.022;2023-06-14T01:32:01;11.5;;;2.5;;
73421;SDS011;61637;47.760;-122.022;2023-06-14T01:34:01;10.5;;;2.4;;
73421;SDS011;61637;47.760;-122.022;2023-06-14T01:36:02;8.5;;;2.1;;
73421;SDS011;61637;47.760;-122.022;2023-06-14T01:38:02;9.0;;;1.9;;
73421;SDS011;61637;47.760;-122.022;2023-06-14T01:40:02;7.7;;;2.3;;
73421;SDS011;61637;47.760;-122.022;2023-06-14T01:42:01;8.8;;;2.2;;
73421;SDS011;61637;47.760;-122.022;2023-06-14T01:44:02;10.0;;;2.2;;
73421;SDS011;61637;47.760;-122.022;2023-06-14T01:46:01;8.4;;;2.3;;
73421;SDS011;61637;47.760;-122.022;2023-06-14T01:48:01;9.9;;;2.3;;
73421;SDS011;61637;47.760;-122.022;2023-06-14T01:50:02;7.2;;;2.1;;
73421;SDS011;61637;47.760;-122.022;2023-06-14T01:52:01;8.8;;;2.4;;
73421;SDS011;61637;47.760;-122.022;2023-06-14T01:54:01;8.9;;;2.2;;
73421;SDS011;61637;47.760;-122.022;2023-06-14T01:56:01;9.6;;;2.3;;
73421;SDS011;61637;47.760;-122.022;2023-06-14T01:58:01;9.3;;;2.4;;
73421;SDS011;61637;47.760;-122.022;2023-06-14T02:00:01;9.2;;;2.3;;
73421;SDS011;61637;47.760;-122.022;2023-06-14T02:02:03;9.1;;;2.4;;
73421;SDS011;61637;47.760;-122.022;2023-06-14T02:04:01;8.7;;;2.2;;
73421;SDS011;61637;47.760;-122.022;2023-06-14T02:06:01;6.7;;;2.2;;
73421;SDS011;61637;47.760;-122.022;2023-06-14T02:08:02;8.3;;;2.4;;
73421;SDS011;61637;47.760;-122.022;2023-06-14T02:10:03;9.8;;;2.5;;
73421;SDS011;61637;47.760;-122.022;2023-06-14T02:12:02;9.8;;;2.5;;
73421;SDS011;61637;47.760;-122.022;2023-06-14T02:14:01;8.9;;;2.5;;
73421;SDS011;61637;47.760;-122.022;2023-06-14T02:16:02;9.1;;;2.6;;
73421;SDS011;61637;47.760;-122.022;2023-06-14T02:18:01;8.5;;;2.5;;
73421;SDS011;61637;47.760;-122.022;2023-06-14T02:20:01;8.8;;;2.3;;
73421;SDS011;61637;47.760;-122.022;2023-06-14T02:22:01;8.7;;;2.3;;
73421;SDS011;61637;47.760;-122.022;2023-06-14T02:24:01;9.3;;;2.2;;
73421;SDS011;61637;47.760;-122.022;2023-06-14T02:26:01;9.6;;;2.4;;
73421;SDS011;61637;47.760;-122.022;2023-06-14T02:28:01;9.3;;;2.4;;
73421;SDS011;61637;47.760;-122.022;2023-06-14T02:30:01;7.2;;;2.2;;
73421;SDS011;61637;47.760;-122.022;2023-06-14T02:32:01;8.4;;;2.4;;
73421;SDS011;61637;47.760;-122.022;2023-06-14T02:34:01;10.3;;;2.2;;
73421;SDS011;61637;47.760;-122.022;2023-06-14T02:36:03;7.0;;;2.2;;
73421;SDS011;61637;47.760;-122.022;2023-06-14T02:38:02;9.5;;;2.2;;
73421;SDS011;61637;47.760;-122.022;2023-06-14T02:40:02;6.4;;;1.9;;
73421;SDS011;61637;47.760;-122.022;2023-06-14T02:42:01;7.6;;;2.0;;
73421;SDS011;61637;47.760;-122.022;2023-06-14T02:44:01;9.9;;;2.3;;
73421;SDS011;61637;47.760;-122.022;2023-06-14T02:46:01;9.7;;;2.5;;
73421;SDS011;61637;47.760;-122.022;2023-06-14T02:48:02;9.0;;;2.2;;
73421;SDS011;61637;47.760;-122.022;2023-06-14T02:50:01;9.3;;;2.2;;
73421;SDS011;61637;47.760;-122.022;2023-06-14T02:52:01;13.7;;;2.6;;
73421;SDS011;61637;47.760;-122.022;2023-06-14T02:54:01;9.5;;;2.3;;
73421;SDS011;61637;47.760;-122.022;2023-06-14T02:56:01;6.8;;;2.1;;
73421;SDS011;61637;47.760;-122.022;2023-06-14T02:58:01;7.9;;;2.0;;
73421;SDS011;61637;47.760;-122.022;2023-06-14T03:00:01;7.3;;;2.3;;
73421;SDS011;61637;47.760;-122.022;2023-06-14T03:02:01;8.8;;;2.1;;
73421;SDS011;61637;47.760;-122.022;2023-06-14T03:04:01;8.8;;;2.2;;
73421;SDS011;61637;47.760;-122.022;2023-06-14T03:06:01;8.4;;;1.9;;
73421;SDS011;61637;47.760;-122.022;2023-06-14T03:08:01;8.4;;;1.8;;
73421;SDS011;61637;47.760;-122.022;2023-06-14T03:10:01;6.7;;;2.0;;
73421;SDS011;61637;47.760;-122.022;2023-06-14T03:12:01;8.1;;;2.0;;
73421;SDS011;61637;47.760;-122.022;2023-06-14T03:14:01;12.8;;;2.9;;
73421;SDS011;61637;47.760;-122.022;2023-06-14T03:16:01;17.8;;;3.6;;
73421;SDS011;61637;47.760;-122.022;2023-06-14T03:18:01;19.8;;;3.8;;
73421;SDS011;61637;47.760;-122.022;2023-06-14T03:20:01;18.6;;;3.3;;
73421;SDS011;61637;47.760;-122.022;2023-06-14T03:22:01;23.1;;;3.9;;
73421;SDS011;61637;47.760;-122.022;2023-06-14T03:24:01;22.9;;;4.5;;
73421;SDS011;61637;47.760;-122.022;2023-06-14T03:26:01;21.1;;;4.2;;
73421;SDS011;61637;47.760;-122.022;2023-06-14T03:28:01;26.3;;;4.8;;
73421;SDS011;61637;47.760;-122.022;2023-06-14T03:30:01;23.5;;;4.6;;
73421;SDS011;61637;47.760;-122.022;2023-06-14T03:32:03;24.3;;;3.9;;
73421;SDS011;61637;47.760;-122.022;2023-06-14T03:34:01;26.8;;;4.6;;
73421;SDS011;61637;47.760;-122.022;2023-06-14T03:36:01;20.8;;;4.8;;
73421;SDS011;61637;47.760;-122.022;2023-06-14T03:38:01;21.6;;;4.3;;
73421;SDS011;61637;47.760;-122.022;2023-06-14T03:40:01;23.6;;;5.3;;
73421;SDS011;61637;47.760;-122.022;2023-06-14T03:42:01;23.2;;;4.7;;
73421;SDS011;61637;47.760;-122.022;2023-06-14T03:44:01;26.6;;;4.7;;
73421;SDS011;61637;47.760;-122.022;2023-06-14T03:46:01;25.6;;;4.7;;
73421;SDS011;61637;47.760;-122.022;2023-06-14T03:48:01;22.2;;;4.4;;
73421;SDS011;61637;47.760;-122.022;2023-06-14T03:50:01;26.2;;;4.3;;
73421;SDS011;61637;47.760;-122.022;2023-06-14T03:52:01;24.1;;;4.5;;
73421;SDS011;61637;47.760;-122.022;2023-06-14T03:54:01;19.7;;;4.0;;
73421;SDS011;61637;47.760;-122.022;2023-06-14T03:56:01;20.8;;;4.4;;
73421;SDS011;61637;47.760;-122.022;2023-06-14T03:58:01;20.9;;;4.4;;
73421;SDS011;61637;47.760;-122.022;2023-06-14T04:00:01;20.9;;;4.3;;
73421;SDS011;61637;47.760;-122.022;2023-06-14T04:02:01;19.3;;;3.9;;
73421;SDS011;61637;47.760;-122.022;2023-06-14T04:04:01;18.9;;;3.9;;
73421;SDS011;61637;47.760;-122.022;2023-06-14T04:06:01;20.1;;;4.1;;
73421;SDS011;61637;47.760;-122.022;2023-06-14T04:08:01;23.8;;;4.4;;
73421;SDS011;61637;47.760;-122.022;2023-06-14T04:10:01;22.3;;;4.4;;
73421;SDS011;61637;47.760;-122.022;2023-06-14T04:12:01;24.3;;;4.4;;
73421;SDS011;61637;47.760;-122.022;2023-06-14T04:14:02;24.1;;;4.7;;
73421;SDS011;61637;47.760;-122.022;2023-06-14T04:16:01;20.5;;;4.1;;
73421;SDS011;61637;47.760;-122.022;2023-06-14T04:18:01;22.7;;;4.2;;
73421;SDS011;61637;47.760;-122.022;2023-06-14T04:20:01;24.3;;;4.1;;
73421;SDS011;61637;47.760;-122.022;2023-06-14T04:22:01;19.7;;;4.1;;
73421;SDS011;61637;47.760;-122.022;2023-06-14T04:24:01;23.6;;;4.4;;
73421;SDS011;61637;47.760;-122.022;2023-06-14T04:26:01;21.6;;;4.4;;
73421;SDS011;61637;47.760;-122.022;2023-06-14T04:28:01;22.3;;;4.2;;
73421;SDS011;61637;47.760;-122.022;2023-06-14T04:30:01;20.1;;;4.0;;
73421;SDS011;61637;47.760;-122.022;2023-06-14T04:32:01;17.4;;;3.8;;
73421;SDS011;61637;47.760;-122.022;2023-06-14T04:34:01;26.7;;;4.5;;
73421;SDS011;61637;47.760;-122.022;2023-06-14T04:36:01;27.5;;;4.6;;
73421;SDS011;61637;47.760;-122.022;2023-06-14T04:38:01;21.9;;;4.1;;
73421;SDS011;61637;47.760;-122.022;2023-06-14T04:40:01;22.1;;;4.2;;
73421;SDS011;61637;47.760;-122.022;2023-06-14T04:42:01;19.3;;;4.0;;
73421;SDS011;61637;47.760;-122.022;2023-06-14T04:44:01;24.7;;;4.2;;
73421;SDS011;61637;47.760;-122.022;2023-06-14T04:46:01;22.9;;;4.5;;
73421;SDS011;61637;47.760;-122.022;2023-06-14T04:48:01;24.4;;;4.6;;
73421;SDS011;61637;47.760;-122.022;2023-06-14T04:50:01;23.4;;;4.4;;
73421;SDS011;61637;47.760;-122.022;2023-06-14T04:52:01;21.7;;;4.0;;
73421;SDS011;61637;47.760;-122.022;2023-06-14T04:54:01;24.0;;;4.4;;
73421;SDS011;61637;47.760;-122.022;2023-06-14T04:56:01;22.9;;;4.2;;
73421;SDS011;61637;47.760;-122.022;2023-06-14T04:58:01;23.5;;;4.5;;
73421;SDS011;61637;47.760;-122.022;2023-06-14T05:00:01;23.9;;;4.6;;
73421;SDS011;61637;47.760;-122.022;2023-06-14T05:02:01;22.6;;;4.3;;
73421;SDS011;61637;47.760;-122.022;2023-06-14T05:04:02;20.2;;;4.1;;
73421;SDS011;61637;47.760;-122.022;2023-06-14T05:06:01;24.0;;;4.7;;
73421;SDS011;61637;47.760;-122.022;2023-06-14T05:08:01;22.0;;;4.4;;
73421;SDS011;61637;47.760;-122.022;2023-06-14T05:10:01;21.3;;;4.3;;
73421;SDS011;61637;47.760;-122.022;2023-06-14T05:12:01;19.6;;;3.9;;
73421;SDS011;61637;47.760;-122.022;2023-06-14T05:14:01;21.9;;;4.4;;
73421;SDS011;61637;47.760;-122.022;2023-06-14T05:16:01;23.8;;;4.3;;
73421;SDS011;61637;47.760;-122.022;2023-06-14T05:18:01;25.1;;;4.6;;
73421;SDS011;61637;47.760;-122.022;2023-06-14T05:20:01;22.6;;;4.1;;
73421;SDS011;61637;47.760;-122.022;2023-06-14T05:22:01;23.1;;;4.3;;
73421;SDS011;61637;47.760;-122.022;2023-06-14T05:24:01;22.8;;;4.4;;
73421;SDS011;61637;47.760;-122.022;2023-06-14T05:26:01;22.1;;;4.1;;
73421;SDS011;61637;47.760;-122.022;2023-06-14T05:28:01;21.3;;;4.1;;
73421;SDS011;61637;47.760;-122.022;2023-06-14T05:30:01;21.6;;;4.1;;
73421;SDS011;61637;47.760;-122.022;2023-06-14T05:32:01;17.3;;;3.9;;
73421;SDS011;61637;47.760;-122.022;2023-06-14T05:34:01;21.8;;;4.6;;
73421;SDS011;61637;47.760;-122.022;2023-06-14T05:36:01;22.2;;;4.3;;
73421;SDS011;61637;47.760;-122.022;2023-06-14T05:38:01;23.5;;;4.7;;
73421;SDS011;61637;47.760;-122.022;2023-06-14T05:40:01;26.1;;;4.5;;
73421;SDS011;61637;47.760;-122.022;2023-06-14T05:42:01;19.2;;;4.1;;
73421;SDS011;61637;47.760;-122.022;2023-06-14T05:44:01;20.1;;;4.1;;
73421;SDS011;61637;47.760;-122.022;2023-06-14T05:46:01;23.6;;;4.0;;
73421;SDS011;61637;47.760;-122.022;2023-06-14T05:48:01;23.8;;;4.4;;
73421;SDS011;61637;47.760;-122.022;2023-06-14T05:50:01;20.1;;;4.4;;
73421;SDS011;61637;47.760;-122.022;2023-06-14T05:52:01;18.5;;;3.8;;
73421;SDS011;61637;47.760;-122.022;2023-06-14T05:54:01;18.2;;;4.1;;
73421;SDS011;61637;47.760;-122.022;2023-06-14T05:56:01;22.1;;;4.2;;
73421;SDS011;61637;47.760;-122.022;2023-06-14T05:58:01;21.4;;;3.8;;
73421;SDS011;61637;47.760;-122.022;2023-06-14T06:00:01;16.9;;;3.7;;
73421;SDS011;61637;47.760;-122.022;2023-06-14T06:02:01;21.0;;;4.4;;
73421;SDS011;61637;47.760;-122.022;2023-06-14T06:04:01;20.9;;;3.8;;
73421;SDS011;61637;47.760;-122.022;2023-06-14T06:06:01;18.9;;;3.8;;
73421;SDS011;61637;47.760;-122.022;2023-06-14T06:08:01;17.5;;;4.0;;
73421;SDS011;61637;47.760;-122.022;2023-06-14T06:10:01;18.5;;;3.6;;
73421;SDS011;61637;47.760;-122.022;2023-06-14T06:12:01;19.1;;;3.9;;
73421;SDS011;61637;47.760;-122.022;2023-06-14T06:14:01;19.0;;;4.3;;
73421;SDS011;61637;47.760;-122.022;2023-06-14T06:16:02;18.2;;;3.7;;
73421;SDS011;61637;47.760;-122.022;2023-06-14T06:18:01;16.1;;;3.5;;
73421;SDS011;61637;47.760;-122.022;2023-06-14T06:20:01;21.0;;;4.2;;
73421;SDS011;61637;47.760;-122.022;2023-06-14T06:22:01;17.0;;;3.5;;
73421;SDS011;61637;47.760;-122.022;2023-06-14T06:24:01;18.6;;;3.7;;
73421;SDS011;61637;47.760;-122.022;2023-06-14T06:26:01;21.9;;;3.8;;
73421;SDS011;61637;47.760;-122.022;2023-06-14T06:28:01;20.9;;;3.8;;
73421;SDS011;61637;47.760;-122.022;2023-06-14T06:30:01;16.1;;;3.9;;
73421;SDS011;61637;47.760;-122.022;2023-06-14T06:32:01;16.6;;;3.6;;
73421;SDS011;61637;47.760;-122.022;2023-06-14T06:34:01;20.8;;;3.6;;
73421;SDS011;61637;47.760;-122.022;2023-06-14T06:36:01;20.9;;;4.0;;
73421;SDS011;61637;47.760;-122.022;2023-06-14T06:38:01;18.6;;;4.0;;
73421;SDS011;61637;47.760;-122.022;2023-06-14T06:40:01;19.7;;;3.8;;
73421;SDS011;61637;47.760;-122.022;2023-06-14T06:42:01;17.7;;;3.1;;
73421;SDS011;61637;47.760;-122.022;2023-06-14T06:44:01;15.7;;;3.5;;
73421;SDS011;61637;47.760;-122.022;2023-06-14T06:46:01;22.3;;;4.0;;
73421;SDS011;61637;47.760;-122.022;2023-06-14T06:48:01;17.7;;;3.6;;
73421;SDS011;61637;47.760;-122.022;2023-06-14T06:50:01;18.5;;;3.8;;
73421;SDS011;61637;47.760;-122.022;2023-06-14T06:52:03;17.6;;;3.8;;
73421;SDS011;61637;47.760;-122.022;2023-06-14T06:54:01;17.6;;;3.8;;
73421;SDS011;61637;47.760;-122.022;2023-06-14T06:56:01;21.1;;;4.0;;
73421;SDS011;61637;47.760;-122.022;2023-06-14T06:58:01;20.7;;;4.2;;
73421;SDS011;61637;47.760;-122.022;2023-06-14T07:00:01;22.0;;;4.2;;
73421;SDS011;61637;47.760;-122.022;2023-06-14T07:02:01;17.9;;;4.1;;
73421;SDS011;61637;47.760;-122.022;2023-06-14T07:04:01;19.6;;;4.3;;
73421;SDS011;61637;47.760;-122.022;2023-06-14T07:06:01;19.2;;;3.7;;
73421;SDS011;61637;47.760;-122.022;2023-06-14T07:08:01;19.3;;;4.0;;
73421;SDS011;61637;47.760;-122.022;2023-06-14T07:10:01;19.3;;;3.9;;
73421;SDS011;61637;47.760;-122.022;2023-06-14T07:12:01;18.4;;;3.6;;
73421;SDS011;61637;47.760;-122.022;2023-06-14T07:14:01;17.8;;;3.8;;
73421;SDS011;61637;47.760;-122.022;2023-06-14T07:16:04;18.8;;;3.9;;
73421;SDS011;61637;47.760;-122.022;2023-06-14T07:18:01;24.0;;;4.2;;
73421;SDS011;61637;47.760;-122.022;2023-06-14T07:20:02;20.2;;;3.9;;
73421;SDS011;61637;47.760;-122.022;2023-06-14T07:22:01;20.2;;;4.2;;
73421;SDS011;61637;47.760;-122.022;2023-06-14T07:24:01;16.1;;;3.9;;
73421;SDS011;61637;47.760;-122.022;2023-06-14T07:26:01;21.4;;;4.3;;
73421;SDS011;61637;47.760;-122.022;2023-06-14T07:28:01;17.0;;;3.8;;
73421;SDS011;61637;47.760;-122.022;2023-06-14T07:30:01;23.2;;;4.3;;
73421;SDS011;61637;47.760;-122.022;2023-06-14T07:32:01;23.6;;;4.1;;
73421;SDS011;61637;47.760;-122.022;2023-06-14T07:34:01;18.2;;;4.1;;
73421;SDS011;61637;47.760;-122.022;2023-06-14T07:36:01;18.8;;;3.9;;
73421;SDS011;61637;47.760;-122.022;2023-06-14T07:38:01;21.8;;;3.9;;
73421;SDS011;61637;47.760;-122.022;2023-06-14T07:40:01;23.2;;;3.9;;
73421;SDS011;61637;47.760;-122.022;2023-06-14T07:42:01;19.8;;;4.3;;
73421;SDS011;61637;47.760;-122.022;2023-06-14T07:44:01;20.7;;;4.2;;
73421;SDS011;61637;47.760;-122.022;2023-06-14T07:46:01;22.0;;;4.2;;
73421;SDS011;61637;47.760;-122.022;2023-06-14T07:48:01;19.8;;;4.2;;
73421;SDS011;61637;47.760;-122.022;2023-06-14T07:50:01;21.0;;;4.1;;
73421;SDS011;61637;47.760;-122.022;2023-06-14T07:52:01;20.2;;;3.6;;
73421;SDS011;61637;47.760;-122.022;2023-06-14T07:54:01;21.1;;;4.1;;
73421;SDS011;61637;47.760;-122.022;2023-06-14T07:56:01;20.6;;;3.8;;
73421;SDS011;61637;47.760;-122.022;2023-06-14T07:58:01;19.0;;;3.9;;
73421;SDS011;61637;47.760;-122.022;2023-06-14T08:00:01;21.8;;;3.9;;
73421;SDS011;61637;47.760;-122.022;2023-06-14T08:02:01;16.3;;;3.6;;
73421;SDS011;61637;47.760;-122.022;2023-06-14T08:04:01;22.2;;;4.2;;
73421;SDS011;61637;47.760;-122.022;2023-06-14T08:06:02;19.0;;;3.6;;
73421;SDS011;61637;47.760;-122.022;2023-06-14T08:08:01;17.3;;;3.4;;
73421;SDS011;61637;47.760;-122.022;2023-06-14T08:10:01;17.7;;;4.0;;
73421;SDS011;61637;47.760;-122.022;2023-06-14T08:12:01;18.0;;;4.1;;
73421;SDS011;61637;47.760;-122.022;2023-06-14T08:14:01;20.0;;;4.2;;
73421;SDS011;61637;47.760;-122.022;2023-06-14T08:16:01;19.4;;;4.1;;
73421;SDS011;61637;47.760;-122.022;2023-06-14T08:18:01;22.8;;;3.8;;
73421;SDS011;61637;47.760;-122.022;2023-06-14T08:20:01;20.2;;;3.8;;
73421;SDS011;61637;47.760;-122.022;2023-06-14T08:22:01;20.2;;;3.6;;
73421;SDS011;61637;47.760;-122.022;2023-06-14T08:24:01;19.2;;;3.6;;
73421;SDS011;61637;47.760;-122.022;2023-06-14T08:26:01;21.8;;;4.1;;
73421;SDS011;61637;47.760;-122.022;2023-06-14T08:28:01;22.3;;;4.5;;
73421;SDS011;61637;47.760;-122.022;2023-06-14T08:30:02;15.3;;;3.5;;
73421;SDS011;61637;47.760;-122.022;2023-06-14T08:32:01;19.6;;;3.9;;
73421;SDS011;61637;47.760;-122.022;2023-06-14T08:34:01;20.1;;;3.6;;
73421;SDS011;61637;47.760;-122.022;2023-06-14T08:36:01;19.2;;;4.0;;
73421;SDS011;61637;47.760;-122.022;2023-06-14T08:38:01;18.9;;;3.7;;
73421;SDS011;61637;47.760;-122.022;2023-06-14T08:40:01;21.0;;;3.9;;
73421;SDS011;61637;47.760;-122.022;2023-06-14T08:42:02;20.4;;;4.1;;
73421;SDS011;61637;47.760;-122.022;2023-06-14T08:44:01;19.2;;;3.8;;
73421;SDS011;61637;47.760;-122.022;2023-06-14T08:46:03;19.8;;;3.6;;
73421;SDS011;61637;47.760;-122.022;2023-06-14T08:48:01;21.9;;;3.7;;
73421;SDS011;61637;47.760;-122.022;2023-06-14T08:50:01;17.4;;;3.4;;
73421;SDS011;61637;47.760;-122.022;2023-06-14T08:52:01;18.2;;;3.8;;
73421;SDS011;61637;47.760;-122.022;2023-06-14T08:54:01;18.1;;;3.7;;
73421;SDS011;61637;47.760;-122.022;2023-06-14T08:56:03;23.6;;;4.3;;
73421;SDS011;61637;47.760;-122.022;2023-06-14T08:58:01;21.6;;;4.2;;
73421;SDS011;61637;47.760;-122.022;2023-06-14T09:00:02;20.3;;;3.8;;
73421;SDS011;61637;47.760;-122.022;2023-06-14T09:02:01;20.2;;;4.0;;
73421;SDS011;61637;47.760;-122.022;2023-06-14T09:04:01;19.1;;;3.7;;
73421;SDS011;61637;47.760;-122.022;2023-06-14T09:06:01;20.3;;;3.9;;
73421;SDS011;61637;47.760;-122.022;2023-06-14T09:08:01;19.4;;;3.6;;
73421;SDS011;61637;47.760;-122.022;2023-06-14T09:10:09;23.7;;;4.0;;
73421;SDS011;61637;47.760;-122.022;2023-06-14T09:12:01;18.5;;;3.6;;
73421;SDS011;61637;47.760;-122.022;2023-06-14T09:14:01;18.1;;;3.4;;
73421;SDS011;61637;47.760;-122.022;2023-06-14T09:16:01;19.9;;;3.3;;
73421;SDS011;61637;47.760;-122.022;2023-06-14T09:18:02;19.0;;;3.8;;
73421;SDS011;61637;47.760;-122.022;2023-06-14T09:20:02;18.7;;;3.5;;
73421;SDS011;61637;47.760;-122.022;2023-06-14T09:22:01;18.8;;;3.5;;
73421;SDS011;61637;47.760;-122.022;2023-06-14T09:24:01;19.2;;;3.9;;
73421;SDS011;61637;47.760;-122.022;2023-06-14T09:26:00;19.2;;;3.4;;
73421;SDS011;61637;47.760;-122.022;2023-06-14T09:28:01;17.0;;;3.4;;
73421;SDS011;61637;47.760;-122.022;2023-06-14T09:30:01;21.7;;;3.9;;
73421;SDS011;61637;47.760;-122.022;2023-06-14T09:32:01;17.7;;;3.7;;
73421;SDS011;61637;47.760;-122.022;2023-06-14T09:34:03;23.7;;;4.3;;
73421;SDS011;61637;47.760;-122.022;2023-06-14T09:36:01;18.5;;;3.5;;
73421;SDS011;61637;47.760;-122.022;2023-06-14T09:38:01;20.9;;;3.9;;
73421;SDS011;61637;47.760;-122.022;2023-06-14T09:40:01;18.6;;;3.6;;
73421;SDS011;61637;47.760;-122.022;2023-06-14T09:42:01;16.0;;;3.2;;
73421;SDS011;61637;47.760;-122.022;2023-06-14T09:44:02;20.1;;;3.4;;
73421;SDS011;61637;47.760;-122.022;2023-06-14T09:46:01;17.1;;;3.7;;
73421;SDS011;61637;47.760;-122.022;2023-06-14T09:48:02;20.6;;;3.7;;
73421;SDS011;61637;47.760;-122.022;2023-06-14T09:50:01;18.9;;;3.9;;
73421;SDS011;61637;47.760;-122.022;2023-06-14T09:52:02;17.8;;;3.7;;
73421;SDS011;61637;47.760;-122.022;2023-06-14T09:54:02;17.9;;;3.5;;
73421;SDS011;61637;47.760;-122.022;2023-06-14T09:56:01;20.4;;;3.9;;
73421;SDS011;61637;47.760;-122.022;2023-06-14T09:58:05;20.5;;;3.5;;
73421;SDS011;61637;47.760;-122.022;2023-06-14T10:00:02;20.6;;;3.3;;
73421;SDS011;61637;47.760;-122.022;2023-06-14T10:02:11;19.9;;;3.3;;
73421;SDS011;61637;47.760;-122.022;2023-06-14T10:04:03;17.3;;;3.4;;
73421;SDS011;61637;47.760;-122.022;2023-06-14T10:06:02;18.2;;;4.0;;
73421;SDS011;61637;47.760;-122.022;2023-06-14T10:08:06;16.6;;;3.3;;
73421;SDS011;61637;47.760;-122.022;2023-06-14T10:10:03;16.0;;;3.5;;
73421;SDS011;61637;47.760;-122.022;2023-06-14T10:12:01;18.0;;;3.7;;
73421;SDS011;61637;47.760;-122.022;2023-06-14T10:14:02;18.9;;;3.4;;
73421;SDS011;61637;47.760;-122.022;2023-06-14T10:16:09;20.5;;;3.6;;
73421;SDS011;61637;47.760;-122.022;2023-06-14T10:18:06;19.1;;;3.6;;
73421;SDS011;61637;47.760;-122.022;2023-06-14T10:20:16;23.7;;;3.6;;
73421;SDS011;61637;47.760;-122.022;2023-06-14T10:22:04;17.4;;;3.7;;
73421;SDS011;61637;47.760;-122.022;2023-06-14T10:24:04;17.1;;;3.5;;
73421;SDS011;61637;47.760;-122.022;2023-06-14T10:26:01;19.6;;;3.5;;
73421;SDS011;61637;47.760;-122.022;2023-06-14T10:28:18;22.4;;;4.1;;
73421;SDS011;61637;47.760;-122.022;2023-06-14T10:30:06;20.6;;;4.4;;
73421;SDS011;61637;47.760;-122.022;2023-06-14T10:32:01;19.8;;;3.5;;
73421;SDS011;61637;47.760;-122.022;2023-06-14T10:34:01;18.5;;;3.5;;
73421;SDS011;61637;47.760;-122.022;2023-06-14T10:36:23;16.1;;;3.5;;
73421;SDS011;61637;47.760;-122.022;2023-06-14T10:38:08;16.3;;;3.6;;
73421;SDS011;61637;47.760;-122.022;2023-06-14T10:40:01;18.2;;;3.5;;
73421;SDS011;61637;47.760;-122.022;2023-06-14T10:42:02;17.0;;;3.5;;
73421;SDS011;61637;47.760;-122.022;2023-06-14T10:44:16;15.4;;;3.2;;
73421;SDS011;61637;47.760;-122.022;2023-06-14T10:46:13;15.4;;;3.3;;
73421;SDS011;61637;47.760;-122.022;2023-06-14T10:48:01;19.8;;;3.7;;
73421;SDS011;61637;47.760;-122.022;2023-06-14T10:50:04;18.5;;;3.7;;
73421;SDS011;61637;47.760;-122.022;2023-06-14T10:52:03;15.9;;;3.6;;
73421;SDS011;61637;47.760;-122.022;2023-06-14T10:54:01;15.2;;;3.4;;
73421;SDS011;61637;47.760;-122.022;2023-06-14T10:56:06;18.3;;;3.8;;
73421;SDS011;61637;47.760;-122.022;2023-06-14T10:58:01;18.6;;;3.3;;
73421;SDS011;61637;47.760;-122.022;2023-06-14T11:00:02;18.2;;;3.5;;
73421;SDS011;61637;47.760;-122.022;2023-06-14T11:02:17;17.1;;;3.6;;
73421;SDS011;61637;47.760;-122.022;2023-06-14T11:04:07;19.4;;;3.9;;
73421;SDS011;61637;47.760;-122.022;2023-06-14T11:06:11;17.8;;;3.6;;
73421;SDS011;61637;47.760;-122.022;2023-06-14T11:08:17;16.4;;;3.3;;
73421;SDS011;61637;47.760;-122.022;2023-06-14T11:10:12;16.0;;;3.4;;
73421;SDS011;61637;47.760;-122.022;2023-06-14T11:12:02;18.3;;;3.6;;
73421;SDS011;61637;47.760;-122.022;2023-06-14T11:14:02;14.0;;;3.1;;
73421;SDS011;61637;47.760;-122.022;2023-06-14T11:16:01;20.0;;;3.8;;
73421;SDS011;61637;47.760;-122.022;2023-06-14T11:18:01;17.9;;;3.9;;
73421;SDS011;61637;47.760;-122.022;2023-06-14T11:20:09;19.0;;;3.4;;
73421;SDS011;61637;47.760;-122.022;2023-06-14T11:22:01;20.0;;;3.6;;
73421;SDS011;61637;47.760;-122.022;2023-06-14T11:24:01;19.4;;;3.7;;
73421;SDS011;61637;47.760;-122.022;2023-06-14T11:26:01;18.5;;;3.5;;
73421;SDS011;61637;47.760;-122.022;2023-06-14T11:28:01;19.8;;;3.4;;
73421;SDS011;61637;47.760;-122.022;2023-06-14T11:30:01;19.8;;;3.4;;
73421;SDS011;61637;47.760;-122.022;2023-06-14T11:32:01;18.2;;;3.8;;
73421;SDS011;61637;47.760;-122.022;2023-06-14T11:34:01;17.7;;;3.4;;
73421;SDS011;61637;47.760;-122.022;2023-06-14T11:36:03;20.4;;;3.5;;
73421;SDS011;61637;47.760;-122.022;2023-06-14T11:38:01;18.5;;;3.5;;
73421;SDS011;61637;47.760;-122.022;2023-06-14T11:40:01;19.4;;;3.7;;
73421;SDS011;61637;47.760;-122.022;2023-06-14T11:42:01;18.2;;;3.2;;